sensor_id;sensor_type;location;lat;lon;timestamp;pressure;altitude;pressure_sealevel;temperature;humidity
27334;BME280;14817;57.104;-2.094;2023-05-01T00:00:03;100305.38;;;9.35;100.00
27334;BME280;14817;57.104;-2.094;2023-05-01T00:02:31;100312.28;;;9.28;100.00
27334;BME280;14817;57.104;-2.094;2023-05-01T00:04:58;100307.41;;;9.23;100.00
27334;BME280;14817;57.104;-2.094;2023-05-01T00:07:24;100308.28;;;9.14;100.00
27334;BME280;14817;57.104;-2.094;2023-05-01T00:09:54;100307.75;;;9.10;100.00
27334;BME280;14817;57.104;-2.094;2023-05-01T00:12:22;100303.69;;;9.06;100.00
27334;BME280;14817;57.104;-2.094;2023-05-01T00:14:49;100303.50;;;9.17;100.00
27334;BME280;14817;57.104;-2.094;2023-05-01T00:17:16;100298.53;;;9.23;100.00
27334;BME280;14817;57.104;-2.094;2023-05-01T00:19:43;100305.03;;;9.20;100.00
27334;BME280;14817;57.104;-2.094;2023-05-01T00:22:10;100305.19;;;9.36;100.00
27334;BME280;14817;57.104;-2.094;2023-05-01T00:24:36;100308.81;;;9.45;100.00
27334;BME280;14817;57.104;-2.094;2023-05-01T00:27:04;100308.00;;;9.63;100.00
27334;BME280;14817;57.104;-2.094;2023-05-01T00:29:31;100303.50;;;9.63;100.00
27334;BME280;14817;57.104;-2.094;2023-05-01T00:31:57;100307.84;;;9.64;100.00
27334;BME280;14817;57.104;-2.094;2023-05-01T00:34:24;100301.75;;;9.72;100.00
27334;BME280;14817;57.104;-2.094;2023-05-01T00:36:51;100292.66;;;9.65;100.00
27334;BME280;14817;57.104;-2.094;2023-05-01T00:39:17;100292.66;;;9.65;100.00
27334;BME280;14817;57.104;-2.094;2023-05-01T00:41:45;100289.34;;;9.53;100.00
27334;BME280;14817;57.104;-2.094;2023-05-01T00:44:11;100294.56;;;9.54;100.00
27334;BME280;14817;57.104;-2.094;2023-05-01T00:46:38;100296.06;;;9.57;100.00
27334;BME280;14817;57.104;-2.094;2023-05-01T00:49:05;100284.38;;;9.40;100.00
27334;BME280;14817;57.104;-2.094;2023-05-01T00:51:32;100289.56;;;9.59;100.00
27334;BME280;14817;57.104;-2.094;2023-05-01T00:53:59;100288.00;;;9.67;100.00
27334;BME280;14817;57.104;-2.094;2023-05-01T00:56:27;100296.22;;;9.55;100.00
27334;BME280;14817;57.104;-2.094;2023-05-01T00:58:55;100293.34;;;9.67;100.00
27334;BME280;14817;57.104;-2.094;2023-05-01T01:01:22;100293.41;;;9.75;100.00
27334;BME280;14817;57.104;-2.094;2023-05-01T01:03:49;100291.13;;;9.80;100.00
27334;BME280;14817;57.104;-2.094;2023-05-01T01:06:33;100289.28;;;9.80;100.00
27334;BME280;14817;57.104;-2.094;2023-05-01T01:11:41;100276.91;;;9.61;100.00
27334;BME280;14817;57.104;-2.094;2023-05-01T01:14:24;100276.91;;;9.61;100.00
27334;BME280;14817;57.104;-2.094;2023-05-01T01:22:10;61971.69;;;-145.65;100.00
27334;BME280;14817;57.104;-2.094;2023-05-01T01:33:17;61971.69;;;-145.65;100.00
27334;BME280;14817;57.104;-2.094;2023-05-01T01:36:01;61971.69;;;-145.65;100.00
27334;BME280;14817;57.104;-2.094;2023-05-01T01:38:39;61971.69;;;-145.65;100.00
27334;BME280;14817;57.104;-2.094;2023-05-01T01:41:13;61971.69;;;-145.65;100.00
27334;BME280;14817;57.104;-2.094;2023-05-01T01:43:46;61971.69;;;-145.65;100.00
27334;BME280;14817;57.104;-2.094;2023-05-01T01:46:15;61971.69;;;-145.65;100.00
27334;BME280;14817;57.104;-2.094;2023-05-01T01:48:46;61971.69;;;-145.65;100.00
27334;BME280;14817;57.104;-2.094;2023-05-01T01:51:17;61971.69;;;-145.65;100.00
27334;BME280;14817;57.104;-2.094;2023-05-01T01:53:49;61971.69;;;-145.65;100.00
27334;BME280;14817;57.104;-2.094;2023-05-01T01:56:19;61971.69;;;-145.65;100.00
27334;BME280;14817;57.104;-2.094;2023-05-01T01:58:47;61971.69;;;-145.65;100.00
27334;BME280;14817;57.104;-2.094;2023-05-01T02:01:17;61971.69;;;-145.65;100.00
27334;BME280;14817;57.104;-2.094;2023-05-01T02:03:45;61971.69;;;-145.65;100.00
27334;BME280;14817;57.104;-2.094;2023-05-01T02:06:14;61971.69;;;-145.65;100.00
27334;BME280;14817;57.104;-2.094;2023-05-01T02:08:45;61971.69;;;-145.65;100.00
27334;BME280;14817;57.104;-2.094;2023-05-01T02:11:14;61971.69;;;-145.65;100.00
27334;BME280;14817;57.104;-2.094;2023-05-01T02:13:44;61971.69;;;-145.65;100.00
27334;BME280;14817;57.104;-2.094;2023-05-01T02:16:12;61971.69;;;-145.65;100.00
27334;BME280;14817;57.104;-2.094;2023-05-01T02:18:40;61971.69;;;-145.65;100.00
27334;BME280;14817;57.104;-2.094;2023-05-01T02:21:08;61971.69;;;-145.65;100.00
27334;BME280;14817;57.104;-2.094;2023-05-01T02:23:37;61971.69;;;-145.65;100.00
27334;BME280;14817;57.104;-2.094;2023-05-01T02:26:05;61971.69;;;-145.65;100.00
27334;BME280;14817;57.104;-2.094;2023-05-01T02:28:37;61971.69;;;-145.65;100.00
27334;BME280;14817;57.104;-2.094;2023-05-01T02:31:08;61971.69;;;-145.65;100.00
27334;BME280;14817;57.104;-2.094;2023-05-01T02:33:35;61971.69;;;-145.65;100.00
27334;BME280;14817;57.104;-2.094;2023-05-01T02:36:02;61971.69;;;-145.65;100.00
27334;BME280;14817;57.104;-2.094;2023-05-01T02:38:33;61971.69;;;-145.65;100.00
27334;BME280;14817;57.104;-2.094;2023-05-01T02:41:00;61971.69;;;-145.65;100.00
27334;BME280;14817;57.104;-2.094;2023-05-01T02:43:29;61971.69;;;-145.65;100.00
27334;BME280;14817;57.104;-2.094;2023-05-01T02:45:58;61971.69;;;-145.65;100.00
27334;BME280;14817;57.104;-2.094;2023-05-01T02:48:27;61971.69;;;-145.65;100.00
27334;BME280;14817;57.104;-2.094;2023-05-01T02:50:57;61971.69;;;-145.65;100.00
27334;BME280;14817;57.104;-2.094;2023-05-01T02:53:24;61971.69;;;-145.65;100.00
27334;BME280;14817;57.104;-2.094;2023-05-01T02:55:56;61971.69;;;-145.65;100.00
27334;BME280;14817;57.104;-2.094;2023-05-01T02:58:24;61971.69;;;-145.65;100.00
27334;BME280;14817;57.104;-2.094;2023-05-01T03:00:51;61971.69;;;-145.65;100.00
27334;BME280;14817;57.104;-2.094;2023-05-01T03:03:19;61971.69;;;-145.65;100.00
27334;BME280;14817;57.104;-2.094;2023-05-01T03:05:46;61971.69;;;-145.65;100.00
27334;BME280;14817;57.104;-2.094;2023-05-01T03:08:13;61971.69;;;-145.65;100.00
27334;BME280;14817;57.104;-2.094;2023-05-01T03:10:40;61971.69;;;-145.65;100.00
27334;BME280;14817;57.104;-2.094;2023-05-01T03:13:10;61971.69;;;-145.65;100.00
27334;BME280;14817;57.104;-2.094;2023-05-01T03:15:37;61971.69;;;-145.65;100.00
27334;BME280;14817;57.104;-2.094;2023-05-01T03:18:04;61971.69;;;-145.65;100.00
27334;BME280;14817;57.104;-2.094;2023-05-01T03:20:32;61971.69;;;-145.65;100.00
27334;BME280;14817;57.104;-2.094;2023-05-01T03:23:00;61971.69;;;-145.65;100.00
27334;BME280;14817;57.104;-2.094;2023-05-01T03:25:28;61971.69;;;-145.65;100.00
27334;BME280;14817;57.104;-2.094;2023-05-01T03:27:55;61971.69;;;-145.65;100.00
27334;BME280;14817;57.104;-2.094;2023-05-01T03:30:22;61971.69;;;-145.65;100.00
27334;BME280;14817;57.104;-2.094;2023-05-01T03:32:49;61971.69;;;-145.65;100.00
27334;BME280;14817;57.104;-2.094;2023-05-01T03:35:22;61971.69;;;-145.65;100.00
27334;BME280;14817;57.104;-2.094;2023-05-01T03:37:49;61971.69;;;-145.65;100.00
27334;BME280;14817;57.104;-2.094;2023-05-01T03:40:36;61971.69;;;-145.65;100.00
27334;BME280;14817;57.104;-2.094;2023-05-01T03:43:36;61971.69;;;-145.65;100.00
27334;BME280;14817;57.104;-2.094;2023-05-01T03:46:08;61971.69;;;-145.65;100.00
27334;BME280;14817;57.104;-2.094;2023-05-01T03:48:35;61971.69;;;-145.65;100.00
27334;BME280;14817;57.104;-2.094;2023-05-01T03:51:02;61971.69;;;-145.65;100.00
27334;BME280;14817;57.104;-2.094;2023-05-01T03:53:29;61971.69;;;-145.65;100.00
27334;BME280;14817;57.104;-2.094;2023-05-01T03:55:56;61971.69;;;-145.65;100.00
27334;BME280;14817;57.104;-2.094;2023-05-01T03:58:23;61971.69;;;-145.65;100.00
27334;BME280;14817;57.104;-2.094;2023-05-01T04:00:53;61971.69;;;-145.65;100.00
27334;BME280;14817;57.104;-2.094;2023-05-01T04:03:22;61971.69;;;-145.65;100.00
27334;BME280;14817;57.104;-2.094;2023-05-01T04:05:51;61971.69;;;-145.65;100.00
27334;BME280;14817;57.104;-2.094;2023-05-01T04:08:18;61971.69;;;-145.65;100.00
27334;BME280;14817;57.104;-2.094;2023-05-01T04:10:45;61971.69;;;-145.65;100.00
27334;BME280;14817;57.104;-2.094;2023-05-01T04:13:12;61971.69;;;-145.65;100.00
27334;BME280;14817;57.104;-2.094;2023-05-01T04:15:43;61971.69;;;-145.65;100.00
27334;BME280;14817;57.104;-2.094;2023-05-01T04:18:10;61971.69;;;-145.65;100.00
27334;BME280;14817;57.104;-2.094;2023-05-01T04:20:37;61971.69;;;-145.65;100.00
27334;BME280;14817;57.104;-2.094;2023-05-01T04:25:30;61971.69;;;-145.65;100.00
27334;BME280;14817;57.104;-2.094;2023-05-01T04:28:04;61971.69;;;-145.65;100.00
27334;BME280;14817;57.104;-2.094;2023-05-01T04:30:31;61971.69;;;-145.65;100.00
27334;BME280;14817;57.104;-2.094;2023-05-01T04:32:58;61971.69;;;-145.65;100.00
27334;BME280;14817;57.104;-2.094;2023-05-01T04:35:25;61971.69;;;-145.65;100.00
27334;BME280;14817;57.104;-2.094;2023-05-01T04:37:52;61971.69;;;-145.65;100.00
27334;BME280;14817;57.104;-2.094;2023-05-01T04:40:19;61971.69;;;-145.65;100.00
27334;BME280;14817;57.104;-2.094;2023-05-01T04:42:46;61971.69;;;-145.65;100.00
27334;BME280;14817;57.104;-2.094;2023-05-01T04:45:13;61971.69;;;-145.65;100.00
27334;BME280;14817;57.104;-2.094;2023-05-01T04:47:40;61971.69;;;-145.65;100.00
27334;BME280;14817;57.104;-2.094;2023-05-01T04:50:08;61971.69;;;-145.65;100.00
27334;BME280;14817;57.104;-2.094;2023-05-01T04:52:35;61971.69;;;-145.65;100.00
27334;BME280;14817;57.104;-2.094;2023-05-01T04:55:04;61971.69;;;-145.65;100.00
27334;BME280;14817;57.104;-2.094;2023-05-01T04:57:35;61971.69;;;-145.65;100.00
27334;BME280;14817;57.104;-2.094;2023-05-01T05:00:05;61971.69;;;-145.65;100.00
27334;BME280;14817;57.104;-2.094;2023-05-01T05:02:40;61971.69;;;-145.65;100.00
27334;BME280;14817;57.104;-2.094;2023-05-01T05:05:08;61971.69;;;-145.65;100.00
27334;BME280;14817;57.104;-2.094;2023-05-01T05:07:36;100270.72;;;9.79;100.00
27334;BME280;14817;57.104;-2.094;2023-05-01T05:10:23;100274.91;;;9.64;100.00
27334;BME280;14817;57.104;-2.094;2023-05-01T05:13:06;100275.22;;;9.60;100.00
27334;BME280;14817;57.104;-2.094;2023-05-01T05:15:32;100271.94;;;9.49;100.00
27334;BME280;14817;57.104;-2.094;2023-05-01T05:18:00;100280.78;;;9.49;100.00
27334;BME280;14817;57.104;-2.094;2023-05-01T05:20:29;100278.03;;;9.41;100.00
27334;BME280;14817;57.104;-2.094;2023-05-01T05:22:56;100273.06;;;9.46;100.00
27334;BME280;14817;57.104;-2.094;2023-05-01T05:25:23;100279.81;;;9.50;100.00
27334;BME280;14817;57.104;-2.094;2023-05-01T05:27:51;100282.16;;;9.53;100.00
27334;BME280;14817;57.104;-2.094;2023-05-01T05:30:18;100282.25;;;9.61;100.00
27334;BME280;14817;57.104;-2.094;2023-05-01T05:32:45;100285.88;;;10.32;100.00
27334;BME280;14817;57.104;-2.094;2023-05-01T05:35:13;100274.19;;;10.59;100.00
27334;BME280;14817;57.104;-2.094;2023-05-01T05:37:40;100277.44;;;11.06;100.00
27334;BME280;14817;57.104;-2.094;2023-05-01T05:40:09;100282.34;;;10.58;100.00
27334;BME280;14817;57.104;-2.094;2023-05-01T05:42:45;100286.31;;;10.46;100.00
27334;BME280;14817;57.104;-2.094;2023-05-01T05:45:12;100290.50;;;10.48;100.00
27334;BME280;14817;57.104;-2.094;2023-05-01T05:47:39;100293.84;;;10.76;100.00
27334;BME280;14817;57.104;-2.094;2023-05-01T05:50:06;100300.88;;;10.77;100.00
27334;BME280;14817;57.104;-2.094;2023-05-01T05:52:34;100291.84;;;10.78;100.00
27334;BME280;14817;57.104;-2.094;2023-05-01T05:55:02;100301.09;;;10.58;100.00
27334;BME280;14817;57.104;-2.094;2023-05-01T05:57:29;100302.56;;;10.78;100.00
27334;BME280;14817;57.104;-2.094;2023-05-01T05:59:56;100309.69;;;10.96;100.00
27334;BME280;14817;57.104;-2.094;2023-05-01T06:02:25;100309.63;;;11.14;100.00
27334;BME280;14817;57.104;-2.094;2023-05-01T06:04:52;100307.50;;;12.25;100.00
27334;BME280;14817;57.104;-2.094;2023-05-01T06:07:20;100293.56;;;13.42;100.00
27334;BME280;14817;57.104;-2.094;2023-05-01T06:09:48;100295.38;;;14.19;100.00
27334;BME280;14817;57.104;-2.094;2023-05-01T06:12:15;100299.53;;;14.06;100.00
27334;BME280;14817;57.104;-2.094;2023-05-01T06:14:43;100302.25;;;12.57;100.00
27334;BME280;14817;57.104;-2.094;2023-05-01T06:17:10;100305.13;;;12.31;100.00
27334;BME280;14817;57.104;-2.094;2023-05-01T06:19:37;100310.19;;;12.17;100.00
27334;BME280;14817;57.104;-2.094;2023-05-01T06:22:07;100317.56;;;12.07;100.00
27334;BME280;14817;57.104;-2.094;2023-05-01T06:24:40;100334.59;;;11.81;100.00
27334;BME280;14817;57.104;-2.094;2023-05-01T06:27:08;100358.56;;;11.24;100.00
27334;BME280;14817;57.104;-2.094;2023-05-01T06:29:36;100384.47;;;11.15;100.00
27334;BME280;14817;57.104;-2.094;2023-05-01T06:32:03;100379.16;;;10.89;100.00
27334;BME280;14817;57.104;-2.094;2023-05-01T06:34:30;100389.88;;;10.63;100.00
27334;BME280;14817;57.104;-2.094;2023-05-01T06:36:58;100391.53;;;11.16;100.00
27334;BME280;14817;57.104;-2.094;2023-05-01T06:39:24;100379.13;;;11.58;100.00
27334;BME280;14817;57.104;-2.094;2023-05-01T06:41:51;100387.22;;;11.23;100.00
27334;BME280;14817;57.104;-2.094;2023-05-01T06:44:28;100388.41;;;10.95;100.00
27334;BME280;14817;57.104;-2.094;2023-05-01T06:46:59;100393.19;;;10.83;100.00
27334;BME280;14817;57.104;-2.094;2023-05-01T06:49:27;100406.47;;;10.49;100.00
27334;BME280;14817;57.104;-2.094;2023-05-01T06:51:54;100418.50;;;10.45;100.00
27334;BME280;14817;57.104;-2.094;2023-05-01T06:54:20;100421.88;;;11.51;100.00
27334;BME280;14817;57.104;-2.094;2023-05-01T06:56:47;100410.53;;;12.74;100.00
27334;BME280;14817;57.104;-2.094;2023-05-01T06:59:14;100416.25;;;12.62;100.00
27334;BME280;14817;57.104;-2.094;2023-05-01T07:01:41;100414.31;;;13.37;100.00
27334;BME280;14817;57.104;-2.094;2023-05-01T07:04:08;100420.44;;;12.90;100.00
27334;BME280;14817;57.104;-2.094;2023-05-01T07:06:34;100421.09;;;12.67;100.00
27334;BME280;14817;57.104;-2.094;2023-05-01T07:09:02;100429.50;;;11.72;100.00
27334;BME280;14817;57.104;-2.094;2023-05-01T07:11:31;100435.66;;;11.30;100.00
27334;BME280;14817;57.104;-2.094;2023-05-01T07:13:59;100440.19;;;11.30;100.00
27334;BME280;14817;57.104;-2.094;2023-05-01T07:16:26;100445.50;;;11.21;100.00
27334;BME280;14817;57.104;-2.094;2023-05-01T07:18:53;100450.03;;;11.55;100.00
27334;BME280;14817;57.104;-2.094;2023-05-01T07:21:20;100444.63;;;12.49;100.00
27334;BME280;14817;57.104;-2.094;2023-05-01T07:23:47;100458.19;;;13.21;100.00
27334;BME280;14817;57.104;-2.094;2023-05-01T07:26:13;100456.53;;;12.54;100.00
27334;BME280;14817;57.104;-2.094;2023-05-01T07:28:40;100475.66;;;12.35;100.00
27334;BME280;14817;57.104;-2.094;2023-05-01T07:31:10;100477.88;;;13.05;100.00
27334;BME280;14817;57.104;-2.094;2023-05-01T07:33:37;100487.41;;;12.34;100.00
27334;BME280;14817;57.104;-2.094;2023-05-01T07:36:04;100485.41;;;12.36;100.00
27334;BME280;14817;57.104;-2.094;2023-05-01T07:38:30;100488.81;;;11.69;100.00
27334;BME280;14817;57.104;-2.094;2023-05-01T07:40:57;100488.16;;;11.67;100.00
27334;BME280;14817;57.104;-2.094;2023-05-01T07:43:24;100490.91;;;10.97;100.00
27334;BME280;14817;57.104;-2.094;2023-05-01T07:45:59;100490.41;;;10.75;100.00
27334;BME280;14817;57.104;-2.094;2023-05-01T07:48:27;100490.41;;;10.39;100.00
27334;BME280;14817;57.104;-2.094;2023-05-01T07:50:54;100490.06;;;10.25;100.00
27334;BME280;14817;57.104;-2.094;2023-05-01T07:53:22;100495.56;;;10.23;100.00
27334;BME280;14817;57.104;-2.094;2023-05-01T07:55:49;100503.09;;;10.10;100.00
27334;BME280;14817;57.104;-2.094;2023-05-01T07:58:16;100498.72;;;9.81;100.00
27334;BME280;14817;57.104;-2.094;2023-05-01T08:00:43;100503.34;;;10.16;100.00
27334;BME280;14817;57.104;-2.094;2023-05-01T08:03:12;100504.19;;;10.17;100.00
27334;BME280;14817;57.104;-2.094;2023-05-01T08:05:40;100510.28;;;10.91;100.00
27334;BME280;14817;57.104;-2.094;2023-05-01T08:08:08;100501.38;;;11.08;100.00
27334;BME280;14817;57.104;-2.094;2023-05-01T08:10:35;100495.84;;;12.96;100.00
27334;BME280;14817;57.104;-2.094;2023-05-01T08:13:02;100504.75;;;12.64;100.00
27334;BME280;14817;57.104;-2.094;2023-05-01T08:15:29;100520.75;;;12.15;100.00
27334;BME280;14817;57.104;-2.094;2023-05-01T08:17:56;100528.28;;;13.19;100.00
27334;BME280;14817;57.104;-2.094;2023-05-01T08:20:22;100535.34;;;13.28;100.00
27334;BME280;14817;57.104;-2.094;2023-05-01T08:22:49;100546.25;;;13.27;100.00
27334;BME280;14817;57.104;-2.094;2023-05-01T08:25:16;100545.41;;;13.51;100.00
27334;BME280;14817;57.104;-2.094;2023-05-01T08:27:43;100554.28;;;13.76;100.00
27334;BME280;14817;57.104;-2.094;2023-05-01T08:30:10;100556.19;;;13.51;100.00
27334;BME280;14817;57.104;-2.094;2023-05-01T08:32:37;100568.38;;;14.34;100.00
27334;BME280;14817;57.104;-2.094;2023-05-01T08:35:04;100565.13;;;15.39;100.00
27334;BME280;14817;57.104;-2.094;2023-05-01T08:37:31;100564.03;;;13.69;100.00
27334;BME280;14817;57.104;-2.094;2023-05-01T08:39:57;100584.91;;;12.93;100.00
27334;BME280;14817;57.104;-2.094;2023-05-01T08:42:25;100582.56;;;13.23;100.00
27334;BME280;14817;57.104;-2.094;2023-05-01T08:44:55;100583.84;;;12.61;100.00
27334;BME280;14817;57.104;-2.094;2023-05-01T08:47:25;100580.56;;;13.33;100.00
27334;BME280;14817;57.104;-2.094;2023-05-01T08:49:55;100578.03;;;14.12;100.00
27334;BME280;14817;57.104;-2.094;2023-05-01T08:52:25;100585.88;;;13.82;100.00
27334;BME280;14817;57.104;-2.094;2023-05-01T08:54:53;100581.81;;;14.42;100.00
27334;BME280;14817;57.104;-2.094;2023-05-01T08:57:22;100592.63;;;14.34;100.00
27334;BME280;14817;57.104;-2.094;2023-05-01T08:59:52;100602.63;;;15.11;100.00
27334;BME280;14817;57.104;-2.094;2023-05-01T09:02:20;100600.41;;;14.21;100.00
27334;BME280;14817;57.104;-2.094;2023-05-01T09:04:50;100605.25;;;13.69;100.00
27334;BME280;14817;57.104;-2.094;2023-05-01T09:07:17;100623.50;;;12.25;100.00
27334;BME280;14817;57.104;-2.094;2023-05-01T09:09:44;100630.88;;;11.97;100.00
27334;BME280;14817;57.104;-2.094;2023-05-01T09:12:26;100639.28;;;11.76;100.00
27334;BME280;14817;57.104;-2.094;2023-05-01T09:14:54;100640.06;;;12.20;100.00
27334;BME280;14817;57.104;-2.094;2023-05-01T09:17:22;100647.47;;;11.92;100.00
27334;BME280;14817;57.104;-2.094;2023-05-01T09:19:50;100655.84;;;11.89;100.00
27334;BME280;14817;57.104;-2.094;2023-05-01T09:22:18;100642.53;;;12.40;100.00
27334;BME280;14817;57.104;-2.094;2023-05-01T09:24:45;100646.19;;;11.60;100.00
27334;BME280;14817;57.104;-2.094;2023-05-01T09:27:12;100658.41;;;11.37;100.00
27334;BME280;14817;57.104;-2.094;2023-05-01T09:29:41;100675.03;;;10.59;100.00
27334;BME280;14817;57.104;-2.094;2023-05-01T09:32:23;100672.16;;;11.34;100.00
27334;BME280;14817;57.104;-2.094;2023-05-01T09:35:16;100657.97;;;12.03;100.00
27334;BME280;14817;57.104;-2.094;2023-05-01T09:37:48;100678.56;;;12.63;100.00
27334;BME280;14817;57.104;-2.094;2023-05-01T09:40:15;100676.16;;;11.92;100.00
27334;BME280;14817;57.104;-2.094;2023-05-01T09:42:49;100693.13;;;11.20;100.00
27334;BME280;14817;57.104;-2.094;2023-05-01T09:45:17;100691.78;;;11.78;100.00
27334;BME280;14817;57.104;-2.094;2023-05-01T09:47:45;100699.41;;;11.65;100.00
27334;BME280;14817;57.104;-2.094;2023-05-01T09:52:54;100723.50;;;10.93;100.00
27334;BME280;14817;57.104;-2.094;2023-05-01T09:55:21;100728.50;;;11.24;100.00
27334;BME280;14817;57.104;-2.094;2023-05-01T09:57:51;100729.75;;;11.48;100.00
27334;BME280;14817;57.104;-2.094;2023-05-01T10:00:21;100729.38;;;11.42;100.00
27334;BME280;14817;57.104;-2.094;2023-05-01T10:02:48;100733.38;;;10.93;100.00
27334;BME280;14817;57.104;-2.094;2023-05-01T10:05:17;100731.91;;;10.98;100.00
27334;BME280;14817;57.104;-2.094;2023-05-01T10:08:00;100728.41;;;10.98;100.00
27334;BME280;14817;57.104;-2.094;2023-05-01T10:10:28;100743.28;;;10.55;100.00
27334;BME280;14817;57.104;-2.094;2023-05-01T10:13:13;100732.69;;;10.53;100.00
27334;BME280;14817;57.104;-2.094;2023-05-01T10:15:41;100738.66;;;11.02;100.00
27334;BME280;14817;57.104;-2.094;2023-05-01T10:18:11;100735.56;;;11.25;100.00
27334;BME280;14817;57.104;-2.094;2023-05-01T10:20:39;100747.00;;;11.27;100.00
27334;BME280;14817;57.104;-2.094;2023-05-01T10:23:06;100748.88;;;11.17;100.00
27334;BME280;14817;57.104;-2.094;2023-05-01T10:25:34;100746.50;;;11.14;100.00
27334;BME280;14817;57.104;-2.094;2023-05-01T10:28:02;100752.47;;;11.08;100.00
27334;BME280;14817;57.104;-2.094;2023-05-01T10:30:31;100767.88;;;10.68;100.00
27334;BME280;14817;57.104;-2.094;2023-05-01T10:32:58;100769.03;;;11.21;100.00
27334;BME280;14817;57.104;-2.094;2023-05-01T10:35:30;100766.09;;;11.78;100.00
27334;BME280;14817;57.104;-2.094;2023-05-01T10:38:05;100767.59;;;11.27;100.00
27334;BME280;14817;57.104;-2.094;2023-05-01T10:45:38;100790.72;;;10.72;100.00
27334;BME280;14817;57.104;-2.094;2023-05-01T10:48:05;100791.16;;;11.51;100.00
27334;BME280;14817;57.104;-2.094;2023-05-01T10:50:33;100795.28;;;11.81;100.00
27334;BME280;14817;57.104;-2.094;2023-05-01T10:58:08;100809.19;;;12.12;100.00
27334;BME280;14817;57.104;-2.094;2023-05-01T11:00:35;100799.47;;;11.93;100.00
27334;BME280;14817;57.104;-2.094;2023-05-01T11:08:33;100818.63;;;11.98;100.00
27334;BME280;14817;57.104;-2.094;2023-05-01T11:14:06;100831.47;;;11.77;100.00
27334;BME280;14817;57.104;-2.094;2023-05-01T11:21:36;100846.56;;;10.57;100.00
27334;BME280;14817;57.104;-2.094;2023-05-01T11:24:05;100843.78;;;11.24;100.00
27334;BME280;14817;57.104;-2.094;2023-05-01T11:26:37;100851.91;;;11.60;100.00
27334;BME280;14817;57.104;-2.094;2023-05-01T11:29:05;100852.34;;;11.83;100.00
27334;BME280;14817;57.104;-2.094;2023-05-01T11:31:32;100850.13;;;12.58;100.00
27334;BME280;14817;57.104;-2.094;2023-05-01T11:34:02;100853.91;;;12.48;100.00
27334;BME280;14817;57.104;-2.094;2023-05-01T11:36:47;100857.28;;;12.50;100.00
27334;BME280;14817;57.104;-2.094;2023-05-01T11:39:17;100871.44;;;11.80;100.00
27334;BME280;14817;57.104;-2.094;2023-05-01T11:41:47;100879.13;;;12.11;100.00
27334;BME280;14817;57.104;-2.094;2023-05-01T11:44:15;100867.44;;;11.38;100.00
27334;BME280;14817;57.104;-2.094;2023-05-01T11:46:43;100877.50;;;10.89;100.00
27334;BME280;14817;57.104;-2.094;2023-05-01T11:49:10;100883.13;;;10.96;100.00
27334;BME280;14817;57.104;-2.094;2023-05-01T11:51:37;100890.00;;;10.51;100.00
27334;BME280;14817;57.104;-2.094;2023-05-01T11:54:08;100895.22;;;10.53;100.00
27334;BME280;14817;57.104;-2.094;2023-05-01T11:56:36;100897.59;;;10.27;100.00
27334;BME280;14817;57.104;-2.094;2023-05-01T12:01:42;100894.84;;;10.95;100.00
27334;BME280;14817;57.104;-2.094;2023-05-01T12:04:10;100901.63;;;10.79;100.00
27334;BME280;14817;57.104;-2.094;2023-05-01T12:09:22;100900.78;;;11.26;100.00
27334;BME280;14817;57.104;-2.094;2023-05-01T12:11:50;100901.63;;;11.82;100.00
27334;BME280;14817;57.104;-2.094;2023-05-01T12:14:19;100899.28;;;11.69;100.00
27334;BME280;14817;57.104;-2.094;2023-05-01T12:16:50;100899.25;;;11.51;100.00
27334;BME280;14817;57.104;-2.094;2023-05-01T12:19:17;100903.03;;;11.31;100.00
27334;BME280;14817;57.104;-2.094;2023-05-01T12:21:47;100916.16;;;11.34;100.00
27334;BME280;14817;57.104;-2.094;2023-05-01T12:24:17;100925.66;;;11.18;100.00
27334;BME280;14817;57.104;-2.094;2023-05-01T12:26:44;100932.84;;;10.51;100.00
27334;BME280;14817;57.104;-2.094;2023-05-01T12:29:12;100950.31;;;10.55;100.00
27334;BME280;14817;57.104;-2.094;2023-05-01T12:31:47;100957.31;;;10.17;100.00
27334;BME280;14817;57.104;-2.094;2023-05-01T12:34:14;100963.09;;;10.03;100.00
27334;BME280;14817;57.104;-2.094;2023-05-01T12:36:51;100961.50;;;9.91;100.00
27334;BME280;14817;57.104;-2.094;2023-05-01T12:39:19;100964.06;;;10.21;100.00
27334;BME280;14817;57.104;-2.094;2023-05-01T12:41:50;100957.50;;;10.45;100.00
27334;BME280;14817;57.104;-2.094;2023-05-01T12:44:21;100955.38;;;10.68;100.00
27334;BME280;14817;57.104;-2.094;2023-05-01T12:46:55;100953.69;;;10.87;100.00
27334;BME280;14817;57.104;-2.094;2023-05-01T12:49:22;100943.34;;;10.92;100.00
27334;BME280;14817;57.104;-2.094;2023-05-01T12:51:51;100950.25;;;11.04;100.00
27334;BME280;14817;57.104;-2.094;2023-05-01T12:54:23;100965.75;;;11.10;100.00
27334;BME280;14817;57.104;-2.094;2023-05-01T12:56:51;100964.94;;;10.22;100.00
27334;BME280;14817;57.104;-2.094;2023-05-01T12:59:26;100971.06;;;9.93;100.00
27334;BME280;14817;57.104;-2.094;2023-05-01T13:01:59;100971.13;;;10.13;100.00
27334;BME280;14817;57.104;-2.094;2023-05-01T13:04:27;100977.19;;;10.25;100.00
27334;BME280;14817;57.104;-2.094;2023-05-01T13:06:55;100971.84;;;10.25;100.00
27334;BME280;14817;57.104;-2.094;2023-05-01T13:09:27;100974.28;;;10.37;100.00
27334;BME280;14817;57.104;-2.094;2023-05-01T13:12:05;100976.53;;;10.52;100.00
27334;BME280;14817;57.104;-2.094;2023-05-01T13:14:39;100977.25;;;10.44;100.00
27334;BME280;14817;57.104;-2.094;2023-05-01T13:17:07;100976.03;;;10.08;100.00
27334;BME280;14817;57.104;-2.094;2023-05-01T13:19:35;100979.81;;;9.95;100.00
27334;BME280;14817;57.104;-2.094;2023-05-01T13:22:04;100985.66;;;9.70;100.00
27334;BME280;14817;57.104;-2.094;2023-05-01T13:24:41;100995.03;;;9.95;100.00
27334;BME280;14817;57.104;-2.094;2023-05-01T13:27:11;100998.50;;;9.86;100.00